sensor_id;sensor_type;location;lat;lon;timestamp;temperature;humidity
2200;DHT22;1106;48.762;9.168;2022-09-19T00:01:32;10.20;90.00
2200;DHT22;1106;48.762;9.168;2022-09-19T00:04:01;10.20;89.90
2200;DHT22;1106;48.762;9.168;2022-09-19T00:06:29;10.30;89.10
2200;DHT22;1106;48.762;9.168;2022-09-19T00:08:57;10.20;88.30
2200;DHT22;1106;48.762;9.168;2022-09-19T00:11:25;10.10;89.00
2200;DHT22;1106;48.762;9.168;2022-09-19T00:13:55;10.00;88.20
2200;DHT22;1106;48.762;9.168;2022-09-19T00:16:24;9.90;88.70
2200;DHT22;1106;48.762;9.168;2022-09-19T00:18:53;10.00;89.10
2200;DHT22;1106;48.762;9.168;2022-09-19T00:21:22;10.00;89.40
2200;DHT22;1106;48.762;9.168;2022-09-19T00:23:49;10.00;89.40
2200;DHT22;1106;48.762;9.168;2022-09-19T00:26:34;10.00;89.30
2200;DHT22;1106;48.762;9.168;2022-09-19T00:29:03;9.90;89.60
2200;DHT22;1106;48.762;9.168;2022-09-19T00:31:30;9.90;89.80
2200;DHT22;1106;48.762;9.168;2022-09-19T00:33:57;9.90;90.00
2200;DHT22;1106;48.762;9.168;2022-09-19T00:36:24;9.80;90.20
2200;DHT22;1106;48.762;9.168;2022-09-19T00:38:51;9.80;90.20
2200;DHT22;1106;48.762;9.168;2022-09-19T00:41:20;9.70;90.60
2200;DHT22;1106;48.762;9.168;2022-09-19T00:43:49;9.70;90.70
2200;DHT22;1106;48.762;9.168;2022-09-19T00:46:19;9.80;90.60
2200;DHT22;1106;48.762;9.168;2022-09-19T00:48:50;9.70;90.80
2200;DHT22;1106;48.762;9.168;2022-09-19T00:51:22;9.60;90.90
2200;DHT22;1106;48.762;9.168;2022-09-19T00:53:50;9.60;91.10
2200;DHT22;1106;48.762;9.168;2022-09-19T00:56:18;9.50;91.30
2200;DHT22;1106;48.762;9.168;2022-09-19T00:58:46;9.50;91.20
2200;DHT22;1106;48.762;9.168;2022-09-19T01:01:15;9.50;91.30
2200;DHT22;1106;48.762;9.168;2022-09-19T01:03:45;9.50;91.60
2200;DHT22;1106;48.762;9.168;2022-09-19T01:06:24;9.40;91.50
2200;DHT22;1106;48.762;9.168;2022-09-19T01:09:15;9.40;91.40
2200;DHT22;1106;48.762;9.168;2022-09-19T01:12:27;9.40;91.10
2200;DHT22;1106;48.762;9.168;2022-09-19T01:15:15;9.50;90.70
2200;DHT22;1106;48.762;9.168;2022-09-19T01:17:48;9.40;90.80
2200;DHT22;1106;48.762;9.168;2022-09-19T01:20:50;9.30;90.70
2200;DHT22;1106;48.762;9.168;2022-09-19T01:23:41;9.20;91.00
2200;DHT22;1106;48.762;9.168;2022-09-19T01:26:23;9.20;91.20
2200;DHT22;1106;48.762;9.168;2022-09-19T01:29:01;9.10;91.40
2200;DHT22;1106;48.762;9.168;2022-09-19T01:31:36;9.10;91.70
2200;DHT22;1106;48.762;9.168;2022-09-19T01:34:08;9.10;91.90
2200;DHT22;1106;48.762;9.168;2022-09-19T01:36:40;9.10;91.80
2200;DHT22;1106;48.762;9.168;2022-09-19T01:39:10;9.10;91.70
2200;DHT22;1106;48.762;9.168;2022-09-19T01:41:37;9.10;91.60
2200;DHT22;1106;48.762;9.168;2022-09-19T01:44:16;9.10;91.70
2200;DHT22;1106;48.762;9.168;2022-09-19T01:46:50;9.00;91.90
2200;DHT22;1106;48.762;9.168;2022-09-19T01:49:25;9.00;92.00
2200;DHT22;1106;48.762;9.168;2022-09-19T01:52:04;9.10;92.00
2200;DHT22;1106;48.762;9.168;2022-09-19T01:54:38;9.00;92.60
2200;DHT22;1106;48.762;9.168;2022-09-19T01:57:17;9.00;92.80
2200;DHT22;1106;48.762;9.168;2022-09-19T02:00:04;9.00;92.60
2200;DHT22;1106;48.762;9.168;2022-09-19T02:02:38;8.90;93.00
2200;DHT22;1106;48.762;9.168;2022-09-19T02:05:12;8.90;93.10
2200;DHT22;1106;48.762;9.168;2022-09-19T02:07:44;8.80;93.30
2200;DHT22;1106;48.762;9.168;2022-09-19T02:10:18;8.80;93.70
2200;DHT22;1106;48.762;9.168;2022-09-19T02:12:47;8.80;93.50
2200;DHT22;1106;48.762;9.168;2022-09-19T02:15:20;8.70;93.70
2200;DHT22;1106;48.762;9.168;2022-09-19T02:17:54;8.70;93.90
2200;DHT22;1106;48.762;9.168;2022-09-19T02:20:25;8.70;94.00
2200;DHT22;1106;48.762;9.168;2022-09-19T02:22:56;8.70;94.20
2200;DHT22;1106;48.762;9.168;2022-09-19T02:25:27;8.70;94.20
2200;DHT22;1106;48.762;9.168;2022-09-19T02:27:58;8.60;94.10
2200;DHT22;1106;48.762;9.168;2022-09-19T02:30:27;8.60;94.20
2200;DHT22;1106;48.762;9.168;2022-09-19T02:32:55;8.60;94.20
2200;DHT22;1106;48.762;9.168;2022-09-19T02:35:26;8.50;94.30
2200;DHT22;1106;48.762;9.168;2022-09-19T02:38:03;8.60;94.60
2200;DHT22;1106;48.762;9.168;2022-09-19T02:40:34;8.50;94.60
2200;DHT22;1106;48.762;9.168;2022-09-19T02:43:09;8.60;94.20
2200;DHT22;1106;48.762;9.168;2022-09-19T02:45:44;8.60;94.40
2200;DHT22;1106;48.762;9.168;2022-09-19T02:48:18;8.60;94.30
2200;DHT22;1106;48.762;9.168;2022-09-19T02:50:49;8.60;94.50
2200;DHT22;1106;48.762;9.168;2022-09-19T02:53:23;8.60;94.10
2200;DHT22;1106;48.762;9.168;2022-09-19T02:55:55;8.60;94.20
2200;DHT22;1106;48.762;9.168;2022-09-19T02:58:25;8.50;94.30
2200;DHT22;1106;48.762;9.168;2022-09-19T03:00:58;8.40;94.60
2200;DHT22;1106;48.762;9.168;2022-09-19T03:03:29;8.50;94.40
2200;DHT22;1106;48.762;9.168;2022-09-19T03:06:17;8.50;94.30
2200;DHT22;1106;48.762;9.168;2022-09-19T03:08:48;8.50;94.00
2200;DHT22;1106;48.762;9.168;2022-09-19T03:11:18;8.50;94.00
2200;DHT22;1106;48.762;9.168;2022-09-19T03:13:48;8.50;93.70
2200;DHT22;1106;48.762;9.168;2022-09-19T03:16:18;8.40;93.80
2200;DHT22;1106;48.762;9.168;2022-09-19T03:18:46;8.50;94.00
2200;DHT22;1106;48.762;9.168;2022-09-19T03:21:19;8.40;93.60
2200;DHT22;1106;48.762;9.168;2022-09-19T03:23:49;8.40;93.80
2200;DHT22;1106;48.762;9.168;2022-09-19T03:26:19;8.40;93.90
2200;DHT22;1106;48.762;9.168;2022-09-19T03:28:46;8.40;94.00
2200;DHT22;1106;48.762;9.168;2022-09-19T03:31:14;8.40;94.00
2200;DHT22;1106;48.762;9.168;2022-09-19T03:33:43;8.40;93.90
2200;DHT22;1106;48.762;9.168;2022-09-19T03:36:12;8.40;94.10
2200;DHT22;1106;48.762;9.168;2022-09-19T03:38:40;8.50;94.10
2200;DHT22;1106;48.762;9.168;2022-09-19T03:41:10;8.50;94.20
2200;DHT22;1106;48.762;9.168;2022-09-19T03:43:37;8.50;93.80
2200;DHT22;1106;48.762;9.168;2022-09-19T03:46:04;8.50;93.70
2200;DHT22;1106;48.762;9.168;2022-09-19T03:48:31;8.50;93.90
2200;DHT22;1106;48.762;9.168;2022-09-19T03:50:59;8.60;93.80
2200;DHT22;1106;48.762;9.168;2022-09-19T03:53:26;8.70;93.00
2200;DHT22;1106;48.762;9.168;2022-09-19T03:55:54;8.70;93.00
2200;DHT22;1106;48.762;9.168;2022-09-19T03:58:22;8.80;92.90
2200;DHT22;1106;48.762;9.168;2022-09-19T04:00:50;8.80;92.40
2200;DHT22;1106;48.762;9.168;2022-09-19T04:03:17;8.90;92.50
2200;DHT22;1106;48.762;9.168;2022-09-19T04:05:45;8.90;92.00
2200;DHT22;1106;48.762;9.168;2022-09-19T04:08:13;9.00;91.70
2200;DHT22;1106;48.762;9.168;2022-09-19T04:10:40;9.00;92.00
2200;DHT22;1106;48.762;9.168;2022-09-19T04:13:07;9.10;91.60
2200;DHT22;1106;48.762;9.168;2022-09-19T04:15:34;9.20;91.30
2200;DHT22;1106;48.762;9.168;2022-09-19T04:18:02;9.20;91.40
2200;DHT22;1106;48.762;9.168;2022-09-19T04:20:29;9.30;91.30
2200;DHT22;1106;48.762;9.168;2022-09-19T04:22:56;9.30;91.20
2200;DHT22;1106;48.762;9.168;2022-09-19T04:25:27;9.30;91.00
2200;DHT22;1106;48.762;9.168;2022-09-19T04:28:00;9.30;91.00
2200;DHT22;1106;48.762;9.168;2022-09-19T04:30:30;9.30;91.20
2200;DHT22;1106;48.762;9.168;2022-09-19T04:32:57;9.40;90.60
2200;DHT22;1106;48.762;9.168;2022-09-19T04:35:28;9.50;90.20
2200;DHT22;1106;48.762;9.168;2022-09-19T04:37:57;9.50;90.30
2200;DHT22;1106;48.762;9.168;2022-09-19T04:40:24;9.50;90.20
2200;DHT22;1106;48.762;9.168;2022-09-19T04:42:52;9.60;90.00
2200;DHT22;1106;48.762;9.168;2022-09-19T04:45:19;9.50;90.00
2200;DHT22;1106;48.762;9.168;2022-09-19T04:47:46;9.60;90.20
2200;DHT22;1106;48.762;9.168;2022-09-19T04:50:14;9.60;90.20
2200;DHT22;1106;48.762;9.168;2022-09-19T04:52:43;9.60;90.20
2200;DHT22;1106;48.762;9.168;2022-09-19T04:55:10;9.70;90.10
2200;DHT22;1106;48.762;9.168;2022-09-19T04:57:37;9.80;90.00
2200;DHT22;1106;48.762;9.168;2022-09-19T05:00:06;9.80;89.30
2200;DHT22;1106;48.762;9.168;2022-09-19T05:02:33;9.80;89.50
2200;DHT22;1106;48.762;9.168;2022-09-19T05:05:00;9.80;89.20
2200;DHT22;1106;48.762;9.168;2022-09-19T05:07:27;9.80;89.20
2200;DHT22;1106;48.762;9.168;2022-09-19T05:09:59;9.80;89.90
2200;DHT22;1106;48.762;9.168;2022-09-19T05:12:27;9.90;89.60
2200;DHT22;1106;48.762;9.168;2022-09-19T05:14:54;9.90;89.40
2200;DHT22;1106;48.762;9.168;2022-09-19T05:17:22;9.90;89.50
2200;DHT22;1106;48.762;9.168;2022-09-19T05:19:51;9.90;89.90
2200;DHT22;1106;48.762;9.168;2022-09-19T05:22:18;9.90;89.90
2200;DHT22;1106;48.762;9.168;2022-09-19T05:24:45;10.00;89.80
2200;DHT22;1106;48.762;9.168;2022-09-19T05:27:12;10.00;89.40
2200;DHT22;1106;48.762;9.168;2022-09-19T05:29:38;10.10;89.30
2200;DHT22;1106;48.762;9.168;2022-09-19T05:32:06;10.10;89.00
2200;DHT22;1106;48.762;9.168;2022-09-19T05:34:34;10.10;89.10
2200;DHT22;1106;48.762;9.168;2022-09-19T05:37:01;10.10;89.70
2200;DHT22;1106;48.762;9.168;2022-09-19T05:39:28;10.10;89.10
2200;DHT22;1106;48.762;9.168;2022-09-19T05:41:54;10.10;89.10
2200;DHT22;1106;48.762;9.168;2022-09-19T05:44:21;10.20;88.90
2200;DHT22;1106;48.762;9.168;2022-09-19T05:46:49;10.20;89.00
2200;DHT22;1106;48.762;9.168;2022-09-19T05:49:16;10.20;88.70
2200;DHT22;1106;48.762;9.168;2022-09-19T05:51:45;10.20;89.10
2200;DHT22;1106;48.762;9.168;2022-09-19T05:54:12;10.30;88.40
2200;DHT22;1106;48.762;9.168;2022-09-19T05:56:37;10.40;87.90
2200;DHT22;1106;48.762;9.168;2022-09-19T05:59:05;10.50;87.60
2200;DHT22;1106;48.762;9.168;2022-09-19T06:01:33;10.60;87.20
2200;DHT22;1106;48.762;9.168;2022-09-19T06:04:03;10.60;87.10
2200;DHT22;1106;48.762;9.168;2022-09-19T06:06:30;10.60;87.20
2200;DHT22;1106;48.762;9.168;2022-09-19T06:08:58;10.60;87.00
2200;DHT22;1106;48.762;9.168;2022-09-19T06:11:25;10.70;86.70
2200;DHT22;1106;48.762;9.168;2022-09-19T06:13:52;10.80;86.70
2200;DHT22;1106;48.762;9.168;2022-09-19T06:16:36;10.90;86.60
2200;DHT22;1106;48.762;9.168;2022-09-19T06:19:05;10.90;86.20
2200;DHT22;1106;48.762;9.168;2022-09-19T06:21:32;10.90;86.50
2200;DHT22;1106;48.762;9.168;2022-09-19T06:24:01;11.00;86.40
2200;DHT22;1106;48.762;9.168;2022-09-19T06:26:28;11.10;86.10
2200;DHT22;1106;48.762;9.168;2022-09-19T06:28:55;11.20;86.00
2200;DHT22;1106;48.762;9.168;2022-09-19T06:31:22;11.30;85.60
2200;DHT22;1106;48.762;9.168;2022-09-19T06:33:49;11.40;85.50
2200;DHT22;1106;48.762;9.168;2022-09-19T06:36:15;11.50;85.20
2200;DHT22;1106;48.762;9.168;2022-09-19T06:38:43;11.60;84.70
2200;DHT22;1106;48.762;9.168;2022-09-19T06:41:11;11.50;84.90
2200;DHT22;1106;48.762;9.168;2022-09-19T06:43:39;11.50;85.60
2200;DHT22;1106;48.762;9.168;2022-09-19T06:46:06;11.60;84.80
2200;DHT22;1106;48.762;9.168;2022-09-19T06:48:34;11.70;83.80
2200;DHT22;1106;48.762;9.168;2022-09-19T06:51:02;11.70;83.60
2200;DHT22;1106;48.762;9.168;2022-09-19T06:53:29;11.80;83.30
2200;DHT22;1106;48.762;9.168;2022-09-19T06:55:55;11.80;83.70
2200;DHT22;1106;48.762;9.168;2022-09-19T06:58:24;11.90;83.20
2200;DHT22;1106;48.762;9.168;2022-09-19T07:00:52;11.90;83.40
2200;DHT22;1106;48.762;9.168;2022-09-19T07:03:19;12.00;82.60
2200;DHT22;1106;48.762;9.168;2022-09-19T07:05:46;12.00;83.00
2200;DHT22;1106;48.762;9.168;2022-09-19T07:08:14;12.10;82.60
2200;DHT22;1106;48.762;9.168;2022-09-19T07:10:41;12.10;82.50
2200;DHT22;1106;48.762;9.168;2022-09-19T07:13:10;12.20;82.20
2200;DHT22;1106;48.762;9.168;2022-09-19T07:15:41;12.30;82.50
2200;DHT22;1106;48.762;9.168;2022-09-19T07:18:08;12.30;81.60
2200;DHT22;1106;48.762;9.168;2022-09-19T07:20:37;12.40;81.70
2200;DHT22;1106;48.762;9.168;2022-09-19T07:23:06;12.40;81.50
2200;DHT22;1106;48.762;9.168;2022-09-19T07:25:33;12.50;80.90
2200;DHT22;1106;48.762;9.168;2022-09-19T07:28:01;12.50;81.40
2200;DHT22;1106;48.762;9.168;2022-09-19T07:30:29;12.50;80.50
2200;DHT22;1106;48.762;9.168;2022-09-19T07:33:00;12.40;81.00
2200;DHT22;1106;48.762;9.168;2022-09-19T07:35:33;12.60;81.00
2200;DHT22;1106;48.762;9.168;2022-09-19T07:38:01;12.50;80.40
2200;DHT22;1106;48.762;9.168;2022-09-19T07:40:28;12.50;80.90
2200;DHT22;1106;48.762;9.168;2022-09-19T07:42:58;12.70;80.50
2200;DHT22;1106;48.762;9.168;2022-09-19T07:45:24;12.80;80.60
2200;DHT22;1106;48.762;9.168;2022-09-19T07:47:51;12.80;79.70
2200;DHT22;1106;48.762;9.168;2022-09-19T07:50:20;12.80;80.20
2200;DHT22;1106;48.762;9.168;2022-09-19T07:52:47;12.80;80.50
2200;DHT22;1106;48.762;9.168;2022-09-19T07:55:14;12.80;80.60
2200;DHT22;1106;48.762;9.168;2022-09-19T07:57:49;12.80;79.80
2200;DHT22;1106;48.762;9.168;2022-09-19T08:00:16;12.90;79.90
2200;DHT22;1106;48.762;9.168;2022-09-19T08:02:43;13.00;80.10
2200;DHT22;1106;48.762;9.168;2022-09-19T08:05:20;13.10;79.00
2200;DHT22;1106;48.762;9.168;2022-09-19T08:07:47;13.10;78.40
2200;DHT22;1106;48.762;9.168;2022-09-19T08:10:14;13.20;78.80
2200;DHT22;1106;48.762;9.168;2022-09-19T08:12:42;13.40;78.60
2200;DHT22;1106;48.762;9.168;2022-09-19T08:15:10;13.40;78.20
2200;DHT22;1106;48.762;9.168;2022-09-19T08:17:41;13.50;78.10
2200;DHT22;1106;48.762;9.168;2022-09-19T08:20:09;13.50;78.20
2200;DHT22;1106;48.762;9.168;2022-09-19T08:22:39;13.40;77.50
2200;DHT22;1106;48.762;9.168;2022-09-19T08:25:06;13.10;78.50
2200;DHT22;1106;48.762;9.168;2022-09-19T08:27:34;13.10;78.90
2200;DHT22;1106;48.762;9.168;2022-09-19T08:30:03;13.10;78.80
2200;DHT22;1106;48.762;9.168;2022-09-19T08:32:30;13.20;78.80
2200;DHT22;1106;48.762;9.168;2022-09-19T08:34:57;13.40;79.00
2200;DHT22;1106;48.762;9.168;2022-09-19T08:37:24;13.70;77.90
2200;DHT22;1106;48.762;9.168;2022-09-19T08:39:52;13.90;77.30
2200;DHT22;1106;48.762;9.168;2022-09-19T08:42:42;14.00;76.70
2200;DHT22;1106;48.762;9.168;2022-09-19T08:45:17;14.20;76.00
2200;DHT22;1106;48.762;9.168;2022-09-19T08:47:46;14.30;74.60
2200;DHT22;1106;48.762;9.168;2022-09-19T08:50:17;14.20;75.60
2200;DHT22;1106;48.762;9.168;2022-09-19T08:52:48;14.20;75.80
2200;DHT22;1106;48.762;9.168;2022-09-19T08:55:20;14.40;75.80
2200;DHT22;1106;48.762;9.168;2022-09-19T08:57:52;14.30;74.70
2200;DHT22;1106;48.762;9.168;2022-09-19T09:00:22;14.00;73.70
2200;DHT22;1106;48.762;9.168;2022-09-19T09:02:54;13.90;75.50
2200;DHT22;1106;48.762;9.168;2022-09-19T09:05:30;14.10;74.30
2200;DHT22;1106;48.762;9.168;2022-09-19T09:08:07;14.00;74.70
2200;DHT22;1106;48.762;9.168;2022-09-19T09:10:45;13.80;74.60
2200;DHT22;1106;48.762;9.168;2022-09-19T09:13:27;13.60;75.30
2200;DHT22;1106;48.762;9.168;2022-09-19T09:16:05;13.60;76.10
2200;DHT22;1106;48.762;9.168;2022-09-19T09:18:56;13.90;75.60
2200;DHT22;1106;48.762;9.168;2022-09-19T09:21:34;14.20;74.50
2200;DHT22;1106;48.762;9.168;2022-09-19T09:24:10;14.40;73.60
2200;DHT22;1106;48.762;9.168;2022-09-19T09:26:43;14.30;72.70
2200;DHT22;1106;48.762;9.168;2022-09-19T09:29:15;14.30;73.50
2200;DHT22;1106;48.762;9.168;2022-09-19T09:31:52;14.20;73.60
2200;DHT22;1106;48.762;9.168;2022-09-19T09:34:24;14.10;73.80
2200;DHT22;1106;48.762;9.168;2022-09-19T09:36:56;14.10;73.90
2200;DHT22;1106;48.762;9.168;2022-09-19T09:39:27;14.20;74.10
2200;DHT22;1106;48.762;9.168;2022-09-19T09:42:01;14.10;72.60
2200;DHT22;1106;48.762;9.168;2022-09-19T09:44:42;14.00;73.40
2200;DHT22;1106;48.762;9.168;2022-09-19T09:47:20;14.20;73.60
2200;DHT22;1106;48.762;9.168;2022-09-19T09:49:48;14.50;73.10
2200;DHT22;1106;48.762;9.168;2022-09-19T09:52:28;14.40;72.70
2200;DHT22;1106;48.762;9.168;2022-09-19T09:55:17;14.40;73.00
2200;DHT22;1106;48.762;9.168;2022-09-19T09:58:13;14.00;72.60
2200;DHT22;1106;48.762;9.168;2022-09-19T10:00:47;13.70;73.60
2200;DHT22;1106;48.762;9.168;2022-09-19T10:03:38;13.60;74.10
2200;DHT22;1106;48.762;9.168;2022-09-19T10:06:13;13.60;74.80
2200;DHT22;1106;48.762;9.168;2022-09-19T10:08:44;13.70;74.30
2200;DHT22;1106;48.762;9.168;2022-09-19T10:11:16;13.70;74.00
2200;DHT22;1106;48.762;9.168;2022-09-19T10:13:48;13.90;73.30
2200;DHT22;1106;48.762;9.168;2022-09-19T10:16:23;14.20;72.20
2200;DHT22;1106;48.762;9.168;2022-09-19T10:18:53;14.20;71.80
2200;DHT22;1106;48.762;9.168;2022-09-19T10:21:20;14.40;71.70
2200;DHT22;1106;48.762;9.168;2022-09-19T10:23:47;14.70;70.70
2200;DHT22;1106;48.762;9.168;2022-09-19T10:26:15;14.90;70.50
2200;DHT22;1106;48.762;9.168;2022-09-19T10:28:49;15.30;70.20
2200;DHT22;1106;48.762;9.168;2022-09-19T10:31:24;15.70;69.60
2200;DHT22;1106;48.762;9.168;2022-09-19T10:33:57;15.80;68.40
2200;DHT22;1106;48.762;9.168;2022-09-19T10:36:31;16.10;68.60
2200;DHT22;1106;48.762;9.168;2022-09-19T10:39:06;16.50;66.70
2200;DHT22;1106;48.762;9.168;2022-09-19T10:41:35;16.60;66.20
2200;DHT22;1106;48.762;9.168;2022-09-19T10:44:05;16.30;66.50
2200;DHT22;1106;48.762;9.168;2022-09-19T10:46:42;15.70;68.00
2200;DHT22;1106;48.762;9.168;2022-09-19T10:49:16;15.50;68.90
2200;DHT22;1106;48.762;9.168;2022-09-19T10:51:48;15.50;69.70
2200;DHT22;1106;48.762;9.168;2022-09-19T10:54:26;15.40;69.80
2200;DHT22;1106;48.762;9.168;2022-09-19T10:56:56;15.60;69.90
2200;DHT22;1106;48.762;9.168;2022-09-19T10:59:28;15.50;70.30
2200;DHT22;1106;48.762;9.168;2022-09-19T11:02:17;15.80;69.60
2200;DHT22;1106;48.762;9.168;2022-09-19T11:04:52;16.10;69.20
2200;DHT22;1106;48.762;9.168;2022-09-19T11:07:23;16.60;68.60
2200;DHT22;1106;48.762;9.168;2022-09-19T11:09:52;16.90;67.00
2200;DHT22;1106;48.762;9.168;2022-09-19T11:12:25;16.90;66.90
2200;DHT22;1106;48.762;9.168;2022-09-19T11:14:54;16.80;66.00
2200;DHT22;1106;48.762;9.168;2022-09-19T11:17:46;16.60;66.90
2200;DHT22;1106;48.762;9.168;2022-09-19T11:20:25;16.60;66.20
2200;DHT22;1106;48.762;9.168;2022-09-19T11:26:02;16.40;66.60
2200;DHT22;1106;48.762;9.168;2022-09-19T11:28:43;16.10;67.40
2200;DHT22;1106;48.762;9.168;2022-09-19T11:31:20;15.80;68.00
2200;DHT22;1106;48.762;9.168;2022-09-19T11:33:54;15.90;68.20
2200;DHT22;1106;48.762;9.168;2022-09-19T11:36:42;15.80;67.70
2200;DHT22;1106;48.762;9.168;2022-09-19T11:39:15;15.70;68.50
2200;DHT22;1106;48.762;9.168;2022-09-19T11:41:52;15.50;69.00
2200;DHT22;1106;48.762;9.168;2022-09-19T11:44:31;15.50;69.70
2200;DHT22;1106;48.762;9.168;2022-09-19T11:47:23;15.40;69.40
2200;DHT22;1106;48.762;9.168;2022-09-19T11:50:12;15.30;69.50
2200;DHT22;1106;48.762;9.168;2022-09-19T11:52:52;15.30;69.70
2200;DHT22;1106;48.762;9.168;2022-09-19T11:55:33;15.30;69.30
2200;DHT22;1106;48.762;9.168;2022-09-19T11:58:08;15.30;70.00
2200;DHT22;1106;48.762;9.168;2022-09-19T12:00:48;15.40;69.50
2200;DHT22;1106;48.762;9.168;2022-09-19T12:03:32;15.30;69.70
2200;DHT22;1106;48.762;9.168;2022-09-19T12:06:18;15.10;70.60
2200;DHT22;1106;48.762;9.168;2022-09-19T12:09:09;15.10;71.40
2200;DHT22;1106;48.762;9.168;2022-09-19T12:11:41;15.40;71.40
2200;DHT22;1106;48.762;9.168;2022-09-19T12:14:13;15.80;70.40
2200;DHT22;1106;48.762;9.168;2022-09-19T12:16:46;16.00;69.50
2200;DHT22;1106;48.762;9.168;2022-09-19T12:19:20;16.30;69.10
2200;DHT22;1106;48.762;9.168;2022-09-19T12:21:51;16.70;68.20
2200;DHT22;1106;48.762;9.168;2022-09-19T12:24:24;17.10;67.90
2200;DHT22;1106;48.762;9.168;2022-09-19T12:27:13;17.40;67.10
2200;DHT22;1106;48.762;9.168;2022-09-19T12:29:44;17.70;66.40
2200;DHT22;1106;48.762;9.168;2022-09-19T12:32:20;17.80;65.60
2200;DHT22;1106;48.762;9.168;2022-09-19T12:34:56;18.00;65.60
2200;DHT22;1106;48.762;9.168;2022-09-19T12:37:31;18.20;65.10
2200;DHT22;1106;48.762;9.168;2022-09-19T12:40:08;18.20;64.30
2200;DHT22;1106;48.762;9.168;2022-09-19T12:42:43;18.00;63.90
2200;DHT22;1106;48.762;9.168;2022-09-19T12:45:15;18.10;64.40
2200;DHT22;1106;48.762;9.168;2022-09-19T12:48:00;18.00;64.40
2200;DHT22;1106;48.762;9.168;2022-09-19T12:50:35;17.80;64.60
2200;DHT22;1106;48.762;9.168;2022-09-19T12:53:17;17.40;64.60
2200;DHT22;1106;48.762;9.168;2022-09-19T12:55:56;17.10;65.30
2200;DHT22;1106;48.762;9.168;2022-09-19T12:58:27;16.90;65.20
2200;DHT22;1106;48.762;9.168;2022-09-19T13:01:10;16.50;66.50
2200;DHT22;1106;48.762;9.168;2022-09-19T13:03:44;16.40;67.40
2200;DHT22;1106;48.762;9.168;2022-09-19T13:06:16;16.50;67.10
2200;DHT22;1106;48.762;9.168;2022-09-19T13:08:49;16.40;67.20
2200;DHT22;1106;48.762;9.168;2022-09-19T13:11:24;16.30;67.60
2200;DHT22;1106;48.762;9.168;2022-09-19T13:13:55;16.20;67.40
2200;DHT22;1106;48.762;9.168;2022-09-19T13:16:27;16.30;67.00
2200;DHT22;1106;48.762;9.168;2022-09-19T13:18:56;16.20;67.80
2200;DHT22;1106;48.762;9.168;2022-09-19T13:21:43;16.10;67.70
2200;DHT22;1106;48.762;9.168;2022-09-19T13:24:36;16.20;67.90
2200;DHT22;1106;48.762;9.168;2022-09-19T13:27:05;16.20;66.30
2200;DHT22;1106;48.762;9.168;2022-09-19T13:29:46;16.10;67.30
2200;DHT22;1106;48.762;9.168;2022-09-19T13:32:46;16.20;66.70
2200;DHT22;1106;48.762;9.168;2022-09-19T13:35:18;16.10;66.70
2200;DHT22;1106;48.762;9.168;2022-09-19T13:37:59;15.90;69.10
2200;DHT22;1106;48.762;9.168;2022-09-19T13:40:41;15.80;69.60
2200;DHT22;1106;48.762;9.168;2022-09-19T13:43:22;16.10;69.40
2200;DHT22;1106;48.762;9.168;2022-09-19T13:45:56;16.50;68.50
2200;DHT22;1106;48.762;9.168;2022-09-19T13:48:33;17.00;66.90
2200;DHT22;1106;48.762;9.168;2022-09-19T13:51:04;17.20;64.10
2200;DHT22;1106;48.762;9.168;2022-09-19T13:53:37;17.30;64.20
2200;DHT22;1106;48.762;9.168;2022-09-19T13:56:21;17.30;63.50
2200;DHT22;1106;48.762;9.168;2022-09-19T13:59:15;17.00;63.80
2200;DHT22;1106;48.762;9.168;2022-09-19T14:01:54;17.00;64.70
2200;DHT22;1106;48.762;9.168;2022-09-19T14:04:22;16.90;64.20
2200;DHT22;1106;48.762;9.168;2022-09-19T14:07:17;16.80;63.90
2200;DHT22;1106;48.762;9.168;2022-09-19T14:09:53;16.70;64.50
2200;DHT22;1106;48.762;9.168;2022-09-19T14:12:56;16.70;65.00
2200;DHT22;1106;48.762;9.168;2022-09-19T14:18:51;16.60;65.20
2200;DHT22;1106;48.762;9.168;2022-09-19T14:21:51;16.80;66.00
2200;DHT22;1106;48.762;9.168;2022-09-19T14:24:47;17.20;65.40
2200;DHT22;1106;48.762;9.168;2022-09-19T14:27:46;17.50;63.70
2200;DHT22;1106;48.762;9.168;2022-09-19T14:30:38;17.60;62.60
2200;DHT22;1106;48.762;9.168;2022-09-19T14:33:33;17.40;63.70
2200;DHT22;1106;48.762;9.168;2022-09-19T14:36:15;16.90;65.20
2200;DHT22;1106;48.762;9.168;2022-09-19T14:39:13;16.50;66.40
2200;DHT22;1106;48.762;9.168;2022-09-19T14:41:50;16.20;67.30
2200;DHT22;1106;48.762;9.168;2022-09-19T14:47:32;16.50;66.30
2200;DHT22;1106;48.762;9.168;2022-09-19T14:50:03;16.20;67.00
2200;DHT22;1106;48.762;9.168;2022-09-19T14:52:35;16.00;67.90
2200;DHT22;1106;48.762;9.168;2022-09-19T14:55:06;15.70;69.20
2200;DHT22;1106;48.762;9.168;2022-09-19T14:57:45;15.60;69.60
2200;DHT22;1106;48.762;9.168;2022-09-19T15:00:19;15.60;69.50
2200;DHT22;1106;48.762;9.168;2022-09-19T15:02:48;15.60;70.00
2200;DHT22;1106;48.762;9.168;2022-09-19T15:05:18;15.50;70.80
2200;DHT22;1106;48.762;9.168;2022-09-19T15:07:45;15.50;71.80
2200;DHT22;1106;48.762;9.168;2022-09-19T15:10:27;15.40;72.60
2200;DHT22;1106;48.762;9.168;2022-09-19T15:12:56;15.30;73.60
2200;DHT22;1106;48.762;9.168;2022-09-19T15:15:25;15.30;74.30
2200;DHT22;1106;48.762;9.168;2022-09-19T15:17:59;15.20;74.90
2200;DHT22;1106;48.762;9.168;2022-09-19T15:20:26;15.20;75.20
2200;DHT22;1106;48.762;9.168;2022-09-19T15:22:56;15.20;74.80
2200;DHT22;1106;48.762;9.168;2022-09-19T15:25:28;15.30;73.60
2200;DHT22;1106;48.762;9.168;2022-09-19T15:27:58;15.10;74.40
2200;DHT22;1106;48.762;9.168;2022-09-19T15:30:30;15.30;74.20
2200;DHT22;1106;48.762;9.168;2022-09-19T15:33:01;15.40;73.80
2200;DHT22;1106;48.762;9.168;2022-09-19T15:35:30;15.40;73.40
2200;DHT22;1106;48.762;9.168;2022-09-19T15:38:00;15.40;73.10
2200;DHT22;1106;48.762;9.168;2022-09-19T15:40:30;15.60;73.00
2200;DHT22;1106;48.762;9.168;2022-09-19T15:42:58;15.70;72.20
2200;DHT22;1106;48.762;9.168;2022-09-19T15:45:44;15.40;72.70
2200;DHT22;1106;48.762;9.168;2022-09-19T15:48:22;15.40;73.40
2200;DHT22;1106;48.762;9.168;2022-09-19T15:50:51;15.50;74.20
2200;DHT22;1106;48.762;9.168;2022-09-19T15:53:24;15.70;74.20
2200;DHT22;1106;48.762;9.168;2022-09-19T15:56:03;15.70;73.60
2200;DHT22;1106;48.762;9.168;2022-09-19T15:58:34;15.70;73.30
2200;DHT22;1106;48.762;9.168;2022-09-19T16:01:11;15.70;73.90
2200;DHT22;1106;48.762;9.168;2022-09-19T16:03:46;15.70;74.10
2200;DHT22;1106;48.762;9.168;2022-09-19T16:06:31;15.70;74.30
2200;DHT22;1106;48.762;9.168;2022-09-19T16:09:17;15.70;74.60
2200;DHT22;1106;48.762;9.168;2022-09-19T16:11:46;15.70;76.30
2200;DHT22;1106;48.762;9.168;2022-09-19T16:14:22;15.70;75.40
2200;DHT22;1106;48.762;9.168;2022-09-19T16:16:51;15.60;75.50
2200;DHT22;1106;48.762;9.168;2022-09-19T16:19:22;15.50;76.40
2200;DHT22;1106;48.762;9.168;2022-09-19T16:21:52;15.40;76.20
2200;DHT22;1106;48.762;9.168;2022-09-19T16:24:21;15.30;77.60
2200;DHT22;1106;48.762;9.168;2022-09-19T16:26:52;14.90;77.90
2200;DHT22;1106;48.762;9.168;2022-09-19T16:29:19;14.50;79.00
2200;DHT22;1106;48.762;9.168;2022-09-19T16:31:47;14.20;80.00
2200;DHT22;1106;48.762;9.168;2022-09-19T16:34:22;13.90;81.10
2200;DHT22;1106;48.762;9.168;2022-09-19T16:36:50;13.70;81.40
2200;DHT22;1106;48.762;9.168;2022-09-19T16:39:22;13.60;82.30
2200;DHT22;1106;48.762;9.168;2022-09-19T16:42:00;13.60;82.00
2200;DHT22;1106;48.762;9.168;2022-09-19T16:44:40;13.60;82.10
2200;DHT22;1106;48.762;9.168;2022-09-19T16:47:12;13.60;83.30
2200;DHT22;1106;48.762;9.168;2022-09-19T16:49:41;13.60;83.50
2200;DHT22;1106;48.762;9.168;2022-09-19T16:52:17;13.60;84.40
2200;DHT22;1106;48.762;9.168;2022-09-19T16:54:45;13.60;84.80